Time;durP1;ratioP1;P1;durP2;ratioP2;P2;SDS_P1;SDS_P2;PMS_P1;PMS_P2;Temp;Humidity;BMP_temperature;BMP_pressure;BME280_temperature;BME280_humidity;BME280_pressure;Samples;Min_cycle;Max_cycle;Signal;HPM_P1;HPM_P2
2020/12/07 00:01:50;;;;;;;14.70;7.93;;;1.60;99.90;;;;;;4994488;28;20775;-60
2020/12/07 00:04:16;;;;;;;11.97;7.80;;;1.60;99.90;;;;;;5026219;28;20291;-60
2020/12/07 00:06:42;;;;;;;12.87;7.70;;;1.60;99.90;;;;;;5012281;28;20206;-60
2020/12/07 00:09:08;;;;;;;11.90;7.30;;;1.60;99.90;;;;;;5039540;28;20185;-60
2020/12/07 00:11:33;;;;;;;9.80;6.00;;;1.60;99.90;;;;;;5010103;28;20199;-60
2020/12/07 00:14:00;;;;;;;8.83;6.30;;;1.60;99.90;;;;;;5012936;28;20206;-60
2020/12/07 00:16:26;;;;;;;11.20;6.27;;;1.60;99.90;;;;;;5010040;28;20848;-61
2020/12/07 00:18:52;;;;;;;11.63;7.00;;;1.60;99.90;;;;;;5027098;28;20432;-59
2020/12/07 00:21:18;;;;;;;8.33;6.30;;;1.60;99.90;;;;;;5029956;28;20426;-60
2020/12/07 00:23:44;;;;;;;8.57;5.50;;;1.60;99.90;;;;;;5014944;28;20416;-61
2020/12/07 00:26:10;;;;;;;9.93;6.70;;;1.60;99.90;;;;;;5027818;28;20214;-62
2020/12/07 00:28:37;;;;;;;11.37;6.60;;;1.60;99.90;;;;;;5011422;28;20564;-59
2020/12/07 00:31:04;;;;;;;9.93;6.07;;;1.60;99.90;;;;;;5027653;28;20435;-61
2020/12/07 00:33:33;;;;;;;10.60;7.37;;;1.60;99.90;;;;;;5031442;28;21116;-62
2020/12/07 00:36:03;;;;;;;10.10;5.70;;;1.60;99.90;;;;;;5015706;28;20428;-61
2020/12/07 00:38:29;;;;;;;11.80;6.73;;;1.50;99.90;;;;;;5025815;28;20421;-61
2020/12/07 00:40:54;;;;;;;15.03;7.40;;;1.50;99.90;;;;;;5008014;28;20438;-61
2020/12/07 00:43:22;;;;;;;13.17;7.53;;;1.50;99.90;;;;;;5011269;28;20743;-62
2020/12/07 00:45:48;;;;;;;11.17;6.30;;;1.60;99.90;;;;;;5029044;28;20263;-62
2020/12/07 00:48:13;;;;;;;8.73;5.97;;;1.50;99.90;;;;;;5020405;28;20456;-61
2020/12/07 00:50:40;;;;;;;6.13;4.87;;;1.60;99.90;;;;;;5015611;28;20383;-62
2020/12/07 00:53:06;;;;;;;5.67;4.60;;;1.60;99.90;;;;;;5028404;28;20199;-63
2020/12/07 00:55:32;;;;;;;6.97;4.63;;;1.60;99.90;;;;;;5019927;28;20962;-61
2020/12/07 00:57:57;;;;;;;5.70;4.57;;;1.60;99.90;;;;;;5028127;28;20197;-62
2020/12/07 01:00:23;;;;;;;6.47;4.37;;;1.60;99.90;;;;;;4991256;28;20789;-62
2020/12/07 01:02:49;;;;;;;6.10;4.20;;;1.60;99.90;;;;;;5029049;28;20221;-62
2020/12/07 01:05:14;;;;;;;5.77;4.17;;;1.60;99.90;;;;;;5011103;28;20232;-62
2020/12/07 01:07:40;;;;;;;4.57;4.17;;;1.60;99.90;;;;;;5029529;28;20205;-61
2020/12/07 01:10:06;;;;;;;6.03;4.73;;;1.60;99.90;;;;;;5029663;28;20613;-61
2020/12/07 01:12:31;;;;;;;7.30;5.27;;;1.70;99.90;;;;;;5011844;28;20191;-61
2020/12/07 01:14:57;;;;;;;5.73;4.40;;;1.60;99.90;;;;;;5008705;28;20308;-61
2020/12/07 01:17:23;;;;;;;4.90;4.30;;;1.60;99.90;;;;;;5029300;28;20254;-63
2020/12/07 01:19:48;;;;;;;6.27;4.53;;;1.60;99.90;;;;;;5033588;28;20752;-62
2020/12/07 01:22:14;;;;;;;6.47;4.40;;;1.60;99.90;;;;;;5003960;28;20515;-61
2020/12/07 01:24:40;;;;;;;6.50;4.77;;;1.60;99.90;;;;;;5019200;28;21607;-61
2020/12/07 01:27:05;;;;;;;8.33;5.83;;;1.60;99.90;;;;;;5029839;28;20237;-61
2020/12/07 01:29:31;;;;;;;10.13;6.20;;;1.60;99.90;;;;;;5026616;28;20668;-61
2020/12/07 01:31:56;;;;;;;8.63;5.50;;;1.60;99.90;;;;;;5028313;28;20190;-62
2020/12/07 01:34:22;;;;;;;10.53;6.07;;;1.60;99.90;;;;;;5007027;28;20282;-61
2020/12/07 01:36:48;;;;;;;11.87;6.10;;;1.60;99.90;;;;;;5029869;28;20317;-61
2020/12/07 01:39:13;;;;;;;10.20;6.13;;;1.60;99.90;;;;;;5023273;28;20583;-61
2020/12/07 01:41:39;;;;;;;10.07;6.17;;;1.60;99.90;;;;;;5011379;28;20683;-63
2020/12/07 01:44:07;;;;;;;9.33;5.50;;;1.60;99.90;;;;;;5026432;28;20217;-61
2020/12/07 01:46:34;;;;;;;8.07;5.07;;;1.60;99.90;;;;;;5029988;28;20292;-62
2020/12/07 01:49:00;;;;;;;8.53;5.30;;;1.60;99.90;;;;;;5024201;28;20448;-61
2020/12/07 01:51:26;;;;;;;6.13;4.20;;;1.60;99.90;;;;;;5024975;28;20429;-61
2020/12/07 01:53:52;;;;;;;6.30;3.90;;;1.60;99.90;;;;;;5031664;28;20209;-61
2020/12/07 01:56:29;;;;;;;4.67;3.70;;;1.60;99.90;;;;;;5028373;28;20538;-61
2020/12/07 01:58:59;;;;;;;4.93;3.60;;;1.60;99.90;;;;;;5015214;28;20491;-60
2020/12/07 02:01:26;;;;;;;4.23;3.60;;;1.60;99.90;;;;;;5029564;28;20429;-61
2020/12/07 02:03:56;;;;;;;16.63;4.60;;;1.60;99.90;;;;;;5021803;28;20451;-61
2020/12/07 02:06:21;;;;;;;5.30;3.80;;;1.60;99.90;;;;;;5029543;28;20455;-61
2020/12/07 02:08:48;;;;;;;3.80;3.40;;;1.60;99.90;;;;;;5033263;28;20433;-61
2020/12/07 02:11:14;;;;;;;5.70;3.90;;;1.60;99.90;;;;;;5035660;28;20214;-62
2020/12/07 02:13:40;;;;;;;4.50;3.77;;;1.70;99.90;;;;;;5027257;28;20493;-62
2020/12/07 02:16:05;;;;;;;3.93;3.37;;;1.60;99.90;;;;;;5030564;28;20232;-60
2020/12/07 02:18:31;;;;;;;5.60;3.57;;;1.60;99.90;;;;;;5009946;28;20291;-61
2020/12/07 02:20:57;;;;;;;8.40;3.57;;;1.60;99.90;;;;;;5020131;28;20205;-63
2020/12/07 02:23:22;;;;;;;3.70;3.17;;;1.60;99.90;;;;;;5031880;28;20440;-61
2020/12/07 02:25:48;;;;;;;3.70;3.10;;;1.60;99.90;;;;;;5024965;28;20205;-61
2020/12/07 02:28:14;;;;;;;4.87;3.67;;;1.60;99.90;;;;;;5010485;28;20214;-63
2020/12/07 02:30:39;;;;;;;4.80;3.43;;;1.60;99.90;;;;;;5007466;28;20398;-61
2020/12/07 02:33:05;;;;;;;3.53;3.23;;;1.60;99.90;;;;;;5003629;28;20202;-61
2020/12/07 02:35:31;;;;;;;4.07;3.60;;;1.60;99.90;;;;;;5021315;28;20200;-61
2020/12/07 02:37:56;;;;;;;5.00;3.23;;;1.60;99.90;;;;;;5015727;28;20214;-61
2020/12/07 02:40:30;;;;;;;4.10;3.27;;;1.60;99.90;;;;;;5026809;28;20182;-62
2020/12/07 02:42:55;;;;;;;3.83;3.23;;;1.60;99.90;;;;;;5013214;28;21093;-61
2020/12/07 02:45:21;;;;;;;8.60;4.93;;;1.60;99.90;;;;;;5010479;28;20535;-61
2020/12/07 02:47:47;;;;;;;5.90;4.07;;;1.60;99.90;;;;;;5024319;28;20214;-61
2020/12/07 02:50:13;;;;;;;3.83;3.30;;;1.60;99.90;;;;;;5015199;28;20195;-62
2020/12/07 02:52:39;;;;;;;4.63;3.80;;;1.60;99.90;;;;;;5031516;28;20226;-61
2020/12/07 02:55:09;;;;;;;4.20;3.80;;;1.60;99.90;;;;;;5013321;28;20473;-63
2020/12/07 02:57:35;;;;;;;4.60;3.50;;;1.60;99.90;;;;;;5026853;28;20240;-61
2020/12/07 03:00:03;;;;;;;3.47;3.17;;;1.60;99.90;;;;;;5029083;28;20444;-62
2020/12/07 03:02:29;;;;;;;4.47;3.47;;;1.60;99.90;;;;;;5027571;28;20520;-61
2020/12/07 03:04:55;;;;;;;4.33;3.33;;;1.60;99.90;;;;;;5025118;28;20543;-64
2020/12/07 03:07:20;;;;;;;5.80;3.47;;;1.60;99.90;;;;;;5001650;28;20300;-61
2020/12/07 03:09:46;;;;;;;4.10;3.53;;;1.60;99.90;;;;;;5028973;28;20580;-62
2020/12/07 03:12:15;;;;;;;4.87;3.80;;;1.60;99.90;;;;;;4992720;28;20202;-61
2020/12/07 03:14:43;;;;;;;5.83;3.67;;;1.60;99.90;;;;;;5013014;28;20225;-61
2020/12/07 03:17:12;;;;;;;5.70;3.63;;;1.60;99.90;;;;;;5025480;28;20471;-61
2020/12/07 03:19:37;;;;;;;6.17;3.73;;;1.60;99.90;;;;;;5033624;28;20439;-61
2020/12/07 03:22:03;;;;;;;5.80;3.97;;;1.60;99.90;;;;;;5014229;28;20448;-68
2020/12/07 03:24:28;;;;;;;4.17;3.60;;;1.60;99.90;;;;;;5024859;28;20676;-61
2020/12/07 03:26:54;;;;;;;4.53;3.67;;;1.60;99.90;;;;;;5027986;28;20201;-61
2020/12/07 03:29:20;;;;;;;4.20;3.53;;;1.60;99.90;;;;;;5010407;28;20202;-62
2020/12/07 03:31:45;;;;;;;4.37;3.40;;;1.60;99.90;;;;;;5007599;28;20200;-62
2020/12/07 03:34:12;;;;;;;4.23;3.60;;;1.60;99.90;;;;;;5029388;28;20241;-61
2020/12/07 03:36:39;;;;;;;3.93;3.53;;;1.60;99.90;;;;;;5011439;28;20249;-63
2020/12/07 03:39:05;;;;;;;3.50;3.20;;;1.60;99.90;;;;;;5012747;28;20437;-61
2020/12/07 03:41:31;;;;;;;3.70;3.40;;;1.60;99.90;;;;;;5011142;28;20508;-62
2020/12/07 03:43:56;;;;;;;5.40;4.00;;;1.60;99.90;;;;;;5008097;28;20542;-61
2020/12/07 03:46:22;;;;;;;4.73;4.03;;;1.60;99.90;;;;;;5007348;28;20460;-60
2020/12/07 03:48:48;;;;;;;4.70;3.53;;;1.60;99.90;;;;;;5005534;28;20229;-62
2020/12/07 03:51:17;;;;;;;7.60;4.03;;;1.60;99.90;;;;;;5027717;28;20182;-62
2020/12/07 03:53:43;;;;;;;3.53;3.23;;;1.60;99.90;;;;;;5028978;28;20470;-62
2020/12/07 03:56:08;;;;;;;4.00;3.60;;;1.60;99.90;;;;;;5006145;28;20452;-64
2020/12/07 03:58:35;;;;;;;9.60;6.00;;;1.60;99.90;;;;;;5028598;28;20194;-61
2020/12/07 04:01:02;;;;;;;5.03;3.60;;;1.60;99.90;;;;;;5005823;28;20491;-63
2020/12/07 04:03:29;;;;;;;4.17;3.47;;;1.60;99.90;;;;;;5025699;28;20515;-61
2020/12/07 04:08:40;;;;;;;5.17;3.70;;;1.60;99.90;;;;;;5026587;28;21233;-61
2020/12/07 04:11:06;;;;;;;4.43;4.03;;;1.60;99.90;;;;;;5010810;28;20816;-63
2020/12/07 04:13:32;;;;;;;4.10;3.20;;;1.60;99.90;;;;;;5022732;28;20461;-61
2020/12/07 04:15:58;;;;;;;4.13;3.73;;;1.60;99.90;;;;;;5028247;28;20241;-61
2020/12/07 04:18:24;;;;;;;4.27;3.57;;;1.60;99.90;;;;;;5028082;28;20962;-60
2020/12/07 04:20:50;;;;;;;4.03;3.57;;;1.60;99.90;;;;;;5036402;28;20876;-61
2020/12/07 04:23:16;;;;;;;6.97;4.20;;;1.60;99.90;;;;;;5022311;28;20464;-61
2020/12/07 04:25:41;;;;;;;3.93;3.50;;;1.60;99.90;;;;;;5020481;28;20817;-62
2020/12/07 04:28:09;;;;;;;7.93;5.00;;;1.60;99.90;;;;;;5024871;28;20226;-61
2020/12/07 04:30:39;;;;;;;4.93;4.00;;;1.60;99.90;;;;;;5024279;28;20182;-61
2020/12/07 04:33:05;;;;;;;5.00;4.50;;;1.60;99.90;;;;;;5028381;28;20503;-61
2020/12/07 04:35:30;;;;;;;4.83;4.00;;;1.60;99.90;;;;;;5031153;28;20549;-62
2020/12/07 04:37:56;;;;;;;4.13;3.73;;;1.60;99.90;;;;;;5029751;28;20209;-61
2020/12/07 04:40:23;;;;;;;5.73;4.10;;;1.60;99.90;;;;;;5006384;28;20623;-62
2020/12/07 04:42:50;;;;;;;5.13;4.10;;;1.60;99.90;;;;;;5027367;28;20528;-61
2020/12/07 04:45:15;;;;;;;6.23;3.67;;;1.60;99.90;;;;;;5008800;28;20518;-61
2020/12/07 04:47:48;;;;;;;4.73;3.60;;;1.60;99.90;;;;;;5007320;28;20479;-61
2020/12/07 04:50:13;;;;;;;5.30;3.77;;;1.60;99.90;;;;;;5017168;28;20190;-61
2020/12/07 04:52:39;;;;;;;4.00;3.57;;;1.60;99.90;;;;;;5019669;28;20486;-65
2020/12/07 04:55:05;;;;;;;4.17;3.20;;;1.60;99.90;;;;;;5022333;28;20694;-61
2020/12/07 04:57:32;;;;;;;6.80;3.63;;;1.60;99.90;;;;;;4994713;28;20464;-61
2020/12/07 04:59:58;;;;;;;5.93;4.40;;;1.70;99.90;;;;;;5016636;28;20482;-62
2020/12/07 05:02:27;;;;;;;7.70;3.90;;;1.70;99.90;;;;;;5013020;28;20431;-60
2020/12/07 05:04:54;;;;;;;4.33;3.80;;;1.70;99.90;;;;;;5016525;28;20503;-61
2020/12/07 05:07:20;;;;;;;4.30;3.80;;;1.70;99.90;;;;;;5029804;28;20452;-62
2020/12/07 05:09:47;;;;;;;6.03;3.80;;;1.70;99.90;;;;;;5023556;28;20443;-66
2020/12/07 05:12:22;;;;;;;4.17;3.53;;;1.70;99.90;;;;;;5025754;28;20486;-60
2020/12/07 05:14:48;;;;;;;3.97;3.57;;;1.70;99.90;;;;;;5003315;28;20602;-62
2020/12/07 05:17:15;;;;;;;3.50;3.20;;;1.70;99.90;;;;;;5023370;28;20473;-63
2020/12/07 05:19:44;;;;;;;5.30;3.43;;;1.70;99.90;;;;;;5014811;28;20440;-62
2020/12/07 05:22:17;;;;;;;8.00;4.10;;;1.70;99.90;;;;;;5015026;28;20524;-61
2020/12/07 05:24:47;;;;;;;3.77;3.23;;;1.70;99.90;;;;;;5024395;28;20452;-62
2020/12/07 05:27:16;;;;;;;4.90;4.27;;;1.60;99.90;;;;;;5026838;28;20460;-61
2020/12/07 05:30:05;;;;;;;5.10;3.93;;;1.70;99.90;;;;;;5021837;28;22269;-63
2020/12/07 05:32:37;;;;;;;6.37;4.27;;;1.70;99.90;;;;;;5019123;28;20502;-61
2020/12/07 05:35:05;;;;;;;6.17;4.00;;;1.70;99.90;;;;;;5024513;28;20957;-59
2020/12/07 05:37:35;;;;;;;6.00;4.23;;;1.60;99.90;;;;;;5030559;28;20483;-59
2020/12/07 05:40:02;;;;;;;8.20;3.87;;;1.70;99.90;;;;;;5032451;28;20451;-63
2020/12/07 05:42:29;;;;;;;11.73;4.27;;;1.70;99.90;;;;;;5026812;28;20468;-63
2020/12/07 05:44:56;;;;;;;6.23;4.03;;;1.70;99.90;;;;;;5017515;28;20432;-63
2020/12/07 05:47:24;;;;;;;7.63;4.73;;;1.70;99.90;;;;;;5021842;28;20465;-65
2020/12/07 05:49:53;;;;;;;3.93;3.50;;;1.70;99.90;;;;;;5010850;28;20895;-61
2020/12/07 05:52:42;;;;;;;5.13;3.67;;;1.70;99.90;;;;;;5027413;28;20464;-62
2020/12/07 05:55:09;;;;;;;4.73;3.43;;;1.70;99.90;;;;;;5014383;28;20459;-62
2020/12/07 05:57:46;;;;;;;4.80;3.30;;;1.70;99.90;;;;;;5031981;28;20460;-66
2020/12/07 06:00:19;;;;;;;3.40;2.80;;;1.70;99.90;;;;;;5028311;28;20460;-63
2020/12/07 06:02:49;;;;;;;4.10;3.13;;;1.70;99.90;;;;;;5020115;28;20429;-61
2020/12/07 06:05:15;;;;;;;5.70;4.07;;;1.60;99.90;;;;;;5021746;28;20448;-63
2020/12/07 06:07:46;;;;;;;5.40;4.10;;;1.70;99.90;;;;;;5026673;28;20970;-62
2020/12/07 06:10:15;;;;;;;5.87;3.67;;;1.70;99.90;;;;;;5014377;28;20564;-62
2020/12/07 06:12:43;;;;;;;12.43;3.93;;;1.70;99.90;;;;;;5032677;28;20413;-62
2020/12/07 06:15:09;;;;;;;7.27;4.20;;;1.70;99.90;;;;;;5026013;28;20463;-64
2020/12/07 06:17:35;;;;;;;6.13;3.80;;;1.60;99.90;;;;;;5032880;28;20541;-62
2020/12/07 06:20:01;;;;;;;7.70;4.70;;;1.60;99.90;;;;;;5027503;28;20607;-60
2020/12/07 06:22:28;;;;;;;9.50;5.10;;;1.60;99.90;;;;;;5006559;28;20437;-60
2020/12/07 06:24:57;;;;;;;13.17;4.83;;;1.60;99.90;;;;;;5028303;28;20173;-62
2020/12/07 06:27:25;;;;;;;7.67;5.20;;;1.60;99.90;;;;;;5017322;28;20507;-62
2020/12/07 06:30:00;;;;;;;10.07;5.13;;;1.60;99.90;;;;;;5026208;28;20524;-64
2020/12/07 06:32:51;;;;;;;6.73;3.77;;;1.60;99.90;;;;;;5026969;28;20431;-63
2020/12/07 06:35:17;;;;;;;3.00;2.80;;;1.60;99.90;;;;;;5032593;28;20455;-62
2020/12/07 06:37:45;;;;;;;3.23;2.80;;;1.60;99.90;;;;;;5031085;28;20964;-63
2020/12/07 06:40:13;;;;;;;3.93;2.57;;;1.60;99.90;;;;;;5032693;28;20607;-62
2020/12/07 06:42:40;;;;;;;3.97;2.97;;;1.60;99.90;;;;;;5030976;28;20478;-61
2020/12/07 06:45:09;;;;;;;4.23;3.23;;;1.60;99.90;;;;;;5013230;28;20432;-62
2020/12/07 06:47:34;;;;;;;7.83;3.93;;;1.60;99.90;;;;;;5030362;28;20459;-62
2020/12/07 06:50:15;;;;;;;6.13;4.00;;;1.60;99.90;;;;;;5017115;28;20462;-61
2020/12/07 06:52:43;;;;;;;5.93;4.10;;;1.60;99.90;;;;;;5031817;28;20262;-62
2020/12/07 06:55:11;;;;;;;6.77;4.53;;;1.60;99.90;;;;;;5035332;28;20606;-65
2020/12/07 06:57:48;;;;;;;5.30;3.50;;;1.60;99.90;;;;;;5043886;28;20523;-63
2020/12/07 07:00:21;;;;;;;3.87;3.47;;;1.50;99.90;;;;;;5027723;28;20826;-62
2020/12/07 07:02:49;;;;;;;3.93;3.50;;;1.50;99.90;;;;;;5034461;28;20833;-64
2020/12/07 07:05:17;;;;;;;5.70;4.10;;;1.50;99.90;;;;;;5010560;28;20547;-62
2020/12/07 07:07:43;;;;;;;6.13;4.20;;;1.40;99.90;;;;;;5037302;28;20436;-62
2020/12/07 07:10:11;;;;;;;6.87;4.57;;;1.40;99.90;;;;;;5030154;28;20423;-62
2020/12/07 07:12:38;;;;;;;7.97;4.50;;;1.40;99.90;;;;;;5027617;28;20444;-63
2020/12/07 07:15:06;;;;;;;5.37;4.00;;;1.40;99.90;;;;;;5036115;28;20490;-63
2020/12/07 07:17:35;;;;;;;5.13;3.80;;;1.40;99.90;;;;;;5027956;28;20448;-63
2020/12/07 07:20:06;;;;;;;6.57;4.30;;;1.40;99.90;;;;;;5043249;28;20460;-63
2020/12/07 07:22:32;;;;;;;7.20;5.30;;;1.40;99.90;;;;;;5033860;28;20435;-63
2020/12/07 07:30:21;;;;;;;7.53;4.60;;;1.40;99.90;;;;;;5024406;28;20507;-64
2020/12/07 07:32:49;;;;;;;6.33;4.17;;;1.30;99.90;;;;;;5025446;28;20428;-62
2020/12/07 07:35:20;;;;;;;6.00;4.50;;;1.40;99.90;;;;;;5019243;28;20468;-62
2020/12/07 07:37:46;;;;;;;9.47;5.53;;;1.30;99.90;;;;;;5038977;28;20841;-61
2020/12/07 07:40:14;;;;;;;6.33;4.17;;;1.30;99.90;;;;;;5035603;28;20559;-62
2020/12/07 07:42:49;;;;;;;7.57;5.00;;;1.30;99.90;;;;;;5036188;28;20806;-62
2020/12/07 07:45:23;;;;;;;7.70;4.90;;;1.40;99.90;;;;;;5033441;28;20467;-61
2020/12/07 08:13:05;;;;;;;8.53;4.03;;;1.50;99.90;;;;;;5030845;28;20540;-62
2020/12/07 08:18:00;;;;;;;8.00;4.50;;;1.40;99.90;;;;;;5028103;28;20471;-61
2020/12/07 08:20:33;;;;;;;8.63;4.97;;;1.40;99.90;;;;;;5014695;28;20417;-61
2020/12/07 08:23:07;;;;;;;7.67;4.23;;;1.40;99.90;;;;;;5021579;28;20423;-62
2020/12/07 08:25:45;;;;;;;7.80;4.37;;;1.50;99.90;;;;;;5012411;28;20432;-61
2020/12/07 08:28:31;;;;;;;11.13;4.77;;;1.50;99.90;;;;;;5030684;28;20444;-61
2020/12/07 08:31:12;;;;;;;17.93;5.53;;;1.60;99.90;;;;;;5034316;28;20425;-61
2020/12/07 08:33:58;;;;;;;8.67;5.33;;;1.60;99.90;;;;;;5013887;28;20469;-61
2020/12/07 08:36:26;;;;;;;8.27;4.90;;;1.60;99.90;;;;;;5013733;28;20462;-61
2020/12/07 08:38:52;;;;;;;6.60;4.70;;;1.50;99.90;;;;;;5027421;28;20431;-62
2020/12/07 08:41:29;;;;;;;6.47;3.83;;;1.50;99.90;;;;;;5091946;22;20837;-53
2020/12/07 08:44:04;;;;;;;8.07;4.03;;;1.60;99.90;;;;;;5066578;28;20431;-52
2020/12/07 08:46:33;;;;;;;8.47;5.17;;;1.60;99.90;;;;;;5068811;28;20787;-53
2020/12/07 08:49:00;;;;;;;9.53;5.30;;;1.60;99.90;;;;;;5067786;28;20426;-52
2020/12/07 08:51:29;;;;;;;6.03;4.37;;;1.70;99.90;;;;;;5048928;28;20500;-54
2020/12/07 08:53:56;;;;;;;6.73;4.10;;;1.70;99.90;;;;;;5066639;28;20466;-51
2020/12/07 08:56:22;;;;;;;10.30;4.80;;;1.70;99.90;;;;;;5069465;28;20422;-52
2020/12/07 08:58:48;;;;;;;9.10;4.80;;;1.70;99.90;;;;;;5067593;28;20900;-52
2020/12/07 09:01:14;;;;;;;10.03;4.80;;;1.70;99.90;;;;;;5061891;28;20451;-52
2020/12/07 09:03:42;;;;;;;9.80;5.47;;;1.70;99.90;;;;;;5067543;28;20176;-51
2020/12/07 09:06:09;;;;;;;10.00;5.10;;;1.70;99.90;;;;;;5073092;28;20450;-52
2020/12/07 09:08:35;;;;;;;9.80;5.57;;;1.70;99.90;;;;;;5072711;28;20829;-52
2020/12/07 09:11:13;;;;;;;11.30;5.40;;;1.80;99.90;;;;;;5072675;28;20415;-53
2020/12/07 09:13:39;;;;;;;12.07;5.50;;;1.80;99.90;;;;;;5073358;28;20486;-53
2020/12/07 09:16:06;;;;;;;9.40;5.70;;;1.80;99.90;;;;;;5073351;28;20423;-52
2020/12/07 09:18:31;;;;;;;13.47;5.70;;;1.80;99.90;;;;;;5069482;28;21318;-52
2020/12/07 09:20:57;;;;;;;8.50;5.10;;;1.80;99.90;;;;;;5070073;28;20426;-52
2020/12/07 09:23:24;;;;;;;8.90;4.40;;;1.90;99.90;;;;;;5063046;28;20935;-53
2020/12/07 09:25:51;;;;;;;9.97;5.47;;;1.90;99.90;;;;;;5066631;28;20435;-53
2020/12/07 09:28:17;;;;;;;9.50;5.57;;;1.80;99.90;;;;;;5070935;28;20480;-53
2020/12/07 09:30:44;;;;;;;8.00;4.90;;;1.90;99.90;;;;;;5070139;28;20434;-50
2020/12/07 09:33:11;;;;;;;7.33;4.37;;;1.90;99.90;;;;;;5070428;28;20418;-52
2020/12/07 09:35:40;;;;;;;6.27;3.90;;;1.90;99.90;;;;;;5069409;28;20472;-52
2020/12/07 09:38:07;;;;;;;5.90;3.87;;;1.90;99.90;;;;;;5066106;28;20423;-52
2020/12/07 09:40:33;;;;;;;7.10;4.20;;;1.90;99.90;;;;;;5071600;28;20422;-51
2020/12/07 09:43:01;;;;;;;7.23;4.83;;;2.00;99.90;;;;;;5069857;28;20574;-52
2020/12/07 09:45:28;;;;;;;7.70;4.40;;;2.00;99.90;;;;;;5066733;28;20426;-52
2020/12/07 09:47:53;;;;;;;6.73;4.40;;;1.90;99.90;;;;;;5068658;28;20433;-53
2020/12/07 09:50:19;;;;;;;8.77;5.40;;;2.00;99.90;;;;;;5070169;28;20446;-55
2020/12/07 09:52:45;;;;;;;7.17;4.60;;;2.00;99.90;;;;;;5069930;28;20450;-54
2020/12/07 09:55:11;;;;;;;10.90;5.70;;;2.00;99.90;;;;;;5070804;28;20964;-55
2020/12/07 09:57:37;;;;;;;7.57;4.80;;;2.00;99.90;;;;;;5062653;28;20259;-54
2020/12/07 10:00:04;;;;;;;10.13;6.40;;;2.00;99.90;;;;;;5069708;28;20254;-53
2020/12/07 10:02:30;;;;;;;9.70;5.63;;;2.00;99.90;;;;;;5071463;28;20430;-53
2020/12/07 10:04:56;;;;;;;10.23;4.87;;;2.00;99.90;;;;;;5071687;28;20421;-53
2020/12/07 10:07:22;;;;;;;9.27;5.30;;;2.00;99.90;;;;;;5068045;28;20416;-51
2020/12/07 10:09:48;;;;;;;13.23;6.40;;;2.00;99.90;;;;;;5063642;28;20185;-52
2020/12/07 10:12:14;;;;;;;15.00;6.73;;;2.00;99.90;;;;;;5064511;28;20439;-51
2020/12/07 10:14:41;;;;;;;15.10;7.73;;;2.00;99.90;;;;;;5068902;28;20462;-53
2020/12/07 10:17:07;;;;;;;17.10;7.80;;;2.00;99.90;;;;;;5062387;28;20404;-53
2020/12/07 10:19:32;;;;;;;11.07;5.77;;;2.00;99.90;;;;;;5063649;28;20776;-51
2020/12/07 10:22:01;;;;;;;13.07;7.50;;;2.10;99.90;;;;;;5065428;28;20458;-54
2020/12/07 10:24:27;;;;;;;13.10;6.77;;;2.10;99.90;;;;;;5067484;28;20172;-51
2020/12/07 10:26:54;;;;;;;14.60;7.60;;;2.20;99.90;;;;;;5060656;28;20403;-52
2020/12/07 10:29:20;;;;;;;14.40;8.70;;;2.20;99.90;;;;;;5070238;28;20463;-54
2020/12/07 10:31:46;;;;;;;19.60;10.27;;;2.20;99.90;;;;;;5066809;28;20486;-52
2020/12/07 10:34:11;;;;;;;11.23;7.50;;;2.30;99.90;;;;;;5069999;28;20201;-52
2020/12/07 10:36:38;;;;;;;14.43;6.90;;;2.30;99.90;;;;;;5071124;28;20182;-56
2020/12/07 10:39:06;;;;;;;10.90;6.23;;;2.30;99.90;;;;;;5070118;28;20185;-53
2020/12/07 10:41:32;;;;;;;16.67;6.57;;;2.30;99.90;;;;;;5057323;28;20541;-53
2020/12/07 10:43:57;;;;;;;16.27;8.53;;;2.30;99.90;;;;;;5071291;28;20453;-54
2020/12/07 10:46:23;;;;;;;9.67;6.60;;;2.40;99.90;;;;;;5071173;28;20663;-53
2020/12/07 10:48:49;;;;;;;11.10;6.80;;;2.40;99.90;;;;;;5064818;28;20208;-53
2020/12/07 10:51:16;;;;;;;13.10;5.30;;;2.40;99.90;;;;;;5068640;28;20455;-53
2020/12/07 10:53:42;;;;;;;7.43;5.00;;;2.40;99.90;;;;;;5070763;28;20300;-55
2020/12/07 10:56:13;;;;;;;10.70;5.47;;;2.40;99.90;;;;;;5071486;28;20460;-52
2020/12/07 10:58:40;;;;;;;9.20;4.67;;;2.40;99.90;;;;;;5064689;28;20174;-53
2020/12/07 11:01:06;;;;;;;7.23;5.07;;;2.40;99.90;;;;;;5066170;28;20450;-56
2020/12/07 11:03:32;;;;;;;7.80;4.90;;;2.40;99.90;;;;;;5070347;28;20419;-53
2020/12/07 11:05:58;;;;;;;8.10;5.30;;;2.40;99.90;;;;;;5068685;28;20431;-54
2020/12/07 11:10:54;;;;;;;10.27;5.90;;;2.50;99.90;;;;;;5056902;28;20196;-54
2020/12/07 11:13:31;;;;;;;7.47;4.90;;;2.60;99.90;;;;;;5069877;28;20419;-53
2020/12/07 11:16:01;;;;;;;9.33;5.60;;;2.60;99.90;;;;;;5059410;28;20976;-52
2020/12/07 11:18:29;;;;;;;8.67;4.80;;;2.60;99.90;;;;;;5066884;28;20444;-56
2020/12/07 11:20:54;;;;;;;12.63;5.30;;;2.60;99.90;;;;;;5068741;28;20474;-54
2020/12/07 11:23:20;;;;;;;8.07;5.43;;;2.70;99.90;;;;;;5056812;28;20832;-54
2020/12/07 11:25:46;;;;;;;9.37;5.80;;;2.90;99.90;;;;;;5063031;28;20175;-54
2020/12/07 11:28:11;;;;;;;8.43;5.10;;;3.10;99.90;;;;;;5063306;28;20231;-54
2020/12/07 11:30:37;;;;;;;7.53;4.80;;;3.30;99.90;;;;;;5065423;28;20227;-56
2020/12/07 11:33:03;;;;;;;8.87;4.80;;;3.60;99.90;;;;;;5069731;28;20187;-52
2020/12/07 11:35:28;;;;;;;6.70;4.90;;;3.80;99.90;;;;;;5052706;28;20194;-54
2020/12/07 11:38:17;;;;;;;6.10;5.00;;;4.00;99.90;;;;;;5070793;28;20179;-53
2020/12/07 11:40:56;;;;;;;6.10;4.37;;;4.10;99.90;;;;;;5061841;28;20650;-54
2020/12/07 11:46:06;;;;;;;7.90;5.10;;;4.40;99.80;;;;;;5068190;28;20440;-53
2020/12/07 11:48:32;;;;;;;10.13;4.73;;;4.50;99.30;;;;;;5068032;28;20413;-54
2020/12/07 11:50:57;;;;;;;5.53;4.33;;;4.50;98.70;;;;;;5065270;28;20174;-55
2020/12/07 11:53:23;;;;;;;7.07;4.90;;;4.40;98.70;;;;;;5069258;28;20961;-53
2020/12/07 11:55:49;;;;;;;7.60;5.30;;;4.40;98.70;;;;;;5070708;28;20257;-53
2020/12/07 11:58:14;;;;;;;6.00;4.43;;;4.30;98.60;;;;;;5065605;28;20171;-54
2020/12/07 12:00:40;;;;;;;7.33;4.93;;;4.30;98.50;;;;;;5066802;28;20178;-53
2020/12/07 12:03:06;;;;;;;6.97;4.90;;;4.20;98.70;;;;;;5065539;28;20207;-54
2020/12/07 12:05:32;;;;;;;4.33;3.60;;;4.10;98.40;;;;;;5069208;28;20289;-54
2020/12/07 12:07:57;;;;;;;6.90;4.57;;;4.00;97.40;;;;;;5066962;28;20380;-52
2020/12/07 12:10:23;;;;;;;7.10;4.93;;;3.80;98.10;;;;;;5065992;28;20666;-53
2020/12/07 12:12:49;;;;;;;9.80;6.10;;;3.70;98.70;;;;;;5066269;28;20210;-53
2020/12/07 12:15:14;;;;;;;8.33;5.80;;;3.60;99.30;;;;;;5050147;28;20276;-52
2020/12/07 12:17:40;;;;;;;9.60;5.43;;;3.60;99.60;;;;;;5065290;28;20182;-52
2020/12/07 12:20:06;;;;;;;8.70;5.83;;;3.60;99.90;;;;;;5068791;28;20257;-54
2020/12/07 12:22:31;;;;;;;7.80;5.10;;;3.50;99.90;;;;;;5058668;28;20197;-54
2020/12/07 12:24:57;;;;;;;7.50;5.40;;;3.40;99.90;;;;;;5057750;28;20183;-53
2020/12/07 12:27:23;;;;;;;7.40;5.17;;;3.30;99.90;;;;;;5068910;28;20174;-54
2020/12/07 12:29:49;;;;;;;8.53;5.40;;;3.20;99.90;;;;;;5068124;28;20194;-52
2020/12/07 12:32:15;;;;;;;9.30;5.13;;;3.20;99.90;;;;;;5067526;28;20924;-54
2020/12/07 12:34:40;;;;;;;10.23;5.70;;;3.00;99.90;;;;;;5069489;28;20621;-53
2020/12/07 12:37:07;;;;;;;8.67;5.60;;;3.00;99.90;;;;;;5067977;28;20445;-52
2020/12/07 12:39:36;;;;;;;8.40;5.30;;;2.90;99.90;;;;;;5064676;28;20265;-53
2020/12/07 12:42:01;;;;;;;6.63;4.90;;;2.80;99.90;;;;;;5068545;28;20466;-51
2020/12/07 12:44:27;;;;;;;7.70;5.43;;;2.70;99.90;;;;;;5068448;28;20794;-52
2020/12/07 12:46:53;;;;;;;9.93;6.77;;;2.70;99.90;;;;;;5068048;28;20442;-52
2020/12/07 12:49:20;;;;;;;11.03;6.27;;;2.60;99.90;;;;;;5060676;28;20181;-54
2020/12/07 12:51:46;;;;;;;10.20;6.07;;;2.50;99.90;;;;;;5067316;28;20213;-53
2020/12/07 12:54:14;;;;;;;8.30;5.23;;;2.50;99.90;;;;;;5064945;28;20829;-52
2020/12/07 12:56:40;;;;;;;9.80;5.97;;;2.40;99.90;;;;;;5068386;28;20779;-54
2020/12/07 12:59:06;;;;;;;8.23;5.40;;;2.40;99.90;;;;;;5062185;28;20792;-54
2020/12/07 13:01:36;;;;;;;9.10;5.60;;;2.30;99.90;;;;;;5049164;28;20510;-56
2020/12/07 13:04:03;;;;;;;8.30;5.30;;;2.30;99.90;;;;;;5068732;28;20173;-54
2020/12/07 13:06:35;;;;;;;8.20;5.17;;;2.30;99.90;;;;;;5067458;28;20438;-53
2020/12/07 13:09:02;;;;;;;8.07;5.33;;;2.20;99.90;;;;;;5062632;28;20443;-55
2020/12/07 13:11:32;;;;;;;5.67;4.43;;;2.20;99.90;;;;;;5068033;28;20527;-54
2020/12/07 13:14:00;;;;;;;9.10;4.97;;;2.20;99.90;;;;;;5064070;28;20466;-54
2020/12/07 13:16:28;;;;;;;11.70;6.93;;;2.20;99.90;;;;;;5048988;28;20787;-52
2020/12/07 13:18:56;;;;;;;15.57;10.73;;;2.20;99.90;;;;;;5069008;28;20479;-51
2020/12/07 13:24:01;;;;;;;10.90;7.03;;;2.20;99.90;;;;;;5063311;28;20921;-53
2020/12/07 13:26:42;;;;;;;11.20;6.17;;;2.20;99.90;;;;;;5066310;28;20959;-51
2020/12/07 13:29:08;;;;;;;13.43;6.53;;;2.20;99.90;;;;;;5068340;28;20407;-53
2020/12/07 13:31:38;;;;;;;15.70;8.40;;;2.30;99.90;;;;;;5066063;28;20448;-52
2020/12/07 13:34:04;;;;;;;15.17;7.90;;;2.30;99.90;;;;;;5068060;28;20194;-53
2020/12/07 13:36:30;;;;;;;13.70;8.00;;;2.20;99.90;;;;;;5069077;28;20743;-53
2020/12/07 13:38:55;;;;;;;18.60;8.90;;;2.20;99.90;;;;;;5057737;28;20191;-56
2020/12/07 13:41:21;;;;;;;17.60;8.70;;;2.20;99.90;;;;;;5059640;28;20223;-53